Time,TemperatureF,DewpointF,PressureIn,WindDirection,WindDirectionDegrees,WindSpeedMPH,WindSpeedGustMPH,Humidity,HourlyPrecipIn,Conditions,Clouds,dailyrainin,SoftwareType,DateUTC
2013-02-02 00:06:00,39.0,37.7,30.12,SW,233,0.0,0.0,95,0.00,,---,0.00,VWS V14.01,2013-02-02 08:06:00,
2013-02-02 00:12:00,39.0,37.7,30.12,SW,233,0.0,0.0,95,0.00,,---,0.00,VWS V14.01,2013-02-02 08:12:00,
2013-02-02 00:17:00,39.2,37.6,30.12,SW,232,0.0,0.0,94,0.00,,---,0.00,VWS V14.01,2013-02-02 08:17:00,
2013-02-02 00:23:00,39.2,37.6,30.09,SE,138,0.0,0.0,94,0.00,,---,0.00,VWS V14.01,2013-02-02 08:23:00,
2013-02-02 00:30:00,39.2,37.6,30.09,SSE,158,0.0,0.0,94,0.00,,---,0.00,VWS V14.01,2013-02-02 08:30:00,
2013-02-02 00:35:00,39.2,37.6,30.12,SSE,158,0.0,0.0,94,0.00,,---,0.00,VWS V14.01,2013-02-02 08:35:00,
2013-02-02 00:42:00,39.2,37.6,30.12,SW,217,0.0,2.7,94,0.00,,---,0.00,VWS V14.01,2013-02-02 08:42:00,
2013-02-02 00:47:00,39.2,37.6,30.12,SW,217,0.0,0.0,94,0.00,,---,0.00,VWS V14.01,2013-02-02 08:47:00,
2013-02-02 00:54:00,39.2,37.3,30.12,ENE,64,0.0,2.7,93,0.00,,---,0.00,VWS V14.01,2013-02-02 08:54:00,
2013-02-02 00:59:00,39.2,37.3,30.12,ENE,64,0.0,0.0,93,0.00,,---,0.00,VWS V14.01,2013-02-02 08:59:00,
2013-02-02 01:06:00,39.2,37.3,30.12,NNE,28,0.0,0.0,93,0.04,,---,0.04,VWS V14.01,2013-02-02 09:06:00,
2013-02-02 01:12:00,39.2,37.3,30.12,NNE,30,0.0,0.0,93,0.04,,---,0.04,VWS V14.01,2013-02-02 09:12:00,
2013-02-02 01:17:00,39.2,37.3,30.12,NNE,30,0.0,3.6,93,0.04,,---,0.04,VWS V14.01,2013-02-02 09:17:00,
2013-02-02 01:24:00,39.6,37.7,30.12,SSW,208,0.0,0.0,93,0.04,,---,0.04,VWS V14.01,2013-02-02 09:24:00,
2013-02-02 01:29:00,39.7,38.2,30.12,SSW,208,0.0,0.0,94,0.04,,---,0.04,VWS V14.01,2013-02-02 09:29:00,
2013-02-02 01:35:00,40.1,38.5,30.12,SSW,208,0.0,0.0,94,0.04,,---,0.04,VWS V14.01,2013-02-02 09:35:00,
2013-02-02 01:41:00,40.3,38.7,30.12,SSW,208,0.0,0.0,94,0.04,,---,0.04,VWS V14.01,2013-02-02 09:41:00,
2013-02-02 01:48:00,40.3,38.7,30.12,WNW,288,0.0,0.0,94,0.04,,---,0.04,VWS V14.01,2013-02-02 09:48:00,
2013-02-02 01:53:00,40.1,38.5,30.12,WNW,287,3.1,3.1,94,0.04,,---,0.04,VWS V14.01,2013-02-02 09:53:00,
2013-02-02 01:59:00,39.9,38.3,30.12,WNW,290,0.0,0.0,94,0.04,,---,0.04,VWS V14.01,2013-02-02 09:59:00,
2013-02-02 02:05:00,39.9,38.3,30.12,WNW,290,0.0,0.0,94,0.00,,---,0.04,VWS V14.01,2013-02-02 10:05:00,
2013-02-02 02:11:00,39.6,38.0,30.12,WNW,290,0.0,0.0,94,0.00,,---,0.04,VWS V14.01,2013-02-02 10:11:00,
2013-02-02 02:18:00,39.2,37.3,30.12,WNW,290,0.0,0.0,93,0.00,,---,0.04,VWS V14.01,2013-02-02 10:18:00,
2013-02-02 02:23:00,39.2,37.3,30.12,WNW,290,0.0,0.0,93,0.00,,---,0.04,VWS V14.01,2013-02-02 10:23:00,
2013-02-02 02:30:00,39.2,37.3,30.12,WNW,290,0.0,0.0,93,0.00,,---,0.04,VWS V14.01,2013-02-02 10:30:00,
2013-02-02 02:36:00,39.2,37.3,30.12,WNW,290,0.0,0.0,93,0.00,,---,0.04,VWS V14.01,2013-02-02 10:36:00,
2013-02-02 02:41:00,39.0,37.2,30.12,WNW,290,0.0,0.0,93,0.00,,---,0.04,VWS V14.01,2013-02-02 10:41:00,
2013-02-02 02:48:00,39.0,37.2,30.12,WNW,290,0.0,0.0,93,0.00,,---,0.04,VWS V14.01,2013-02-02 10:48:00,
2013-02-02 02:54:00,39.0,36.9,30.12,WNW,290,0.0,0.0,92,0.00,,---,0.04,VWS V14.01,2013-02-02 10:54:00,
2013-02-02 02:59:00,39.0,36.9,30.12,WNW,290,0.0,0.0,92,0.00,,---,0.04,VWS V14.01,2013-02-02 10:59:00,
2013-02-02 03:05:00,39.0,36.6,30.12,WNW,287,0.0,0.0,91,0.00,,---,0.04,VWS V14.01,2013-02-02 11:05:00,
2013-02-02 03:11:00,39.0,36.6,30.12,WNW,287,0.0,0.0,91,0.00,,---,0.04,VWS V14.01,2013-02-02 11:11:00,
2013-02-02 03:18:00,39.2,36.5,30.12,WNW,287,0.0,0.0,90,0.00,,---,0.04,VWS V14.01,2013-02-02 11:18:00,
2013-02-02 03:23:00,39.4,36.4,30.12,NW,315,0.0,0.0,89,0.00,,---,0.04,VWS V14.01,2013-02-02 11:23:00,
2013-02-02 03:30:00,39.4,36.4,30.12,NW,314,0.0,0.0,89,0.00,,---,0.04,VWS V14.01,2013-02-02 11:30:00,
2013-02-02 03:35:00,39.7,36.8,30.09,NW,305,0.0,3.1,89,0.00,,---,0.04,VWS V14.01,2013-02-02 11:35:00,
2013-02-02 03:42:00,40.1,37.1,30.09,West,275,0.0,0.0,89,0.00,,---,0.04,VWS V14.01,2013-02-02 11:42:00,
2013-02-02 03:47:00,40.5,37.8,30.09,West,263,0.0,0.0,90,0.00,,---,0.04,VWS V14.01,2013-02-02 11:47:00,
2013-02-02 03:54:00,40.5,37.8,30.09,West,263,0.0,0.0,90,0.00,,---,0.04,VWS V14.01,2013-02-02 11:54:00,
2013-02-02 04:00:00,40.5,37.8,30.09,West,262,0.0,0.0,90,0.00,,---,0.04,VWS V14.01,2013-02-02 12:00:00,
2013-02-02 04:05:00,40.5,37.8,30.09,WSW,253,0.0,0.0,90,0.00,,---,0.04,VWS V14.01,2013-02-02 12:05:00,
2013-02-02 04:12:00,40.3,37.6,30.09,WSW,252,0.0,0.0,90,0.00,,---,0.04,VWS V14.01,2013-02-02 12:12:00,
2013-02-02 04:17:00,40.5,38.0,30.09,SSE,151,0.0,0.0,91,0.00,,---,0.04,VWS V14.01,2013-02-02 12:17:00,
2013-02-02 04:24:00,40.5,38.0,30.09,SSE,151,0.0,0.0,91,0.00,,---,0.04,VWS V14.01,2013-02-02 12:24:00,
2013-02-02 04:29:00,40.5,38.0,30.09,SW,214,0.0,0.0,91,0.00,,---,0.04,VWS V14.01,2013-02-02 12:29:00,
2013-02-02 04:36:00,40.5,38.0,30.09,SW,214,0.0,0.0,91,0.00,,---,0.04,VWS V14.01,2013-02-02 12:36:00,
2013-02-02 04:41:00,40.5,38.0,30.09,SW,214,0.0,0.0,91,0.00,,---,0.04,VWS V14.01,2013-02-02 12:41:00,
2013-02-02 04:47:00,40.5,38.0,30.09,SW,214,0.0,0.0,91,0.00,,---,0.04,VWS V14.01,2013-02-02 12:47:00,
2013-02-02 04:54:00,40.3,37.6,30.09,SW,214,0.0,0.0,90,0.00,,---,0.04,VWS V14.01,2013-02-02 12:54:00,
2013-02-02 05:00:00,40.1,37.4,30.09,SW,214,0.0,0.0,90,0.00,,---,0.04,VWS V14.01,2013-02-02 13:00:00,
2013-02-02 05:05:00,40.1,37.4,30.09,South,185,0.0,0.0,90,0.00,,---,0.04,VWS V14.01,2013-02-02 13:05:00,
2013-02-02 05:11:00,40.3,37.6,30.09,South,185,0.0,0.0,90,0.00,,---,0.04,VWS V14.01,2013-02-02 13:11:00,
2013-02-02 05:17:00,40.3,37.6,30.09,South,185,0.0,0.0,90,0.00,,---,0.04,VWS V14.01,2013-02-02 13:17:00,
2013-02-02 05:24:00,40.3,37.3,30.09,South,185,0.0,0.0,89,0.00,,---,0.04,VWS V14.01,2013-02-02 13:24:00,
2013-02-02 05:29:00,40.3,37.3,30.09,South,185,0.0,0.0,89,0.00,,---,0.04,VWS V14.01,2013-02-02 13:29:00,
2013-02-02 05:35:00,39.9,37.0,30.09,South,185,0.0,0.0,89,0.00,,---,0.04,VWS V14.01,2013-02-02 13:35:00,
2013-02-02 05:42:00,39.9,36.7,30.09,South,185,0.0,0.0,88,0.00,,---,0.04,VWS V14.01,2013-02-02 13:42:00,
2013-02-02 05:47:00,39.9,36.7,30.09,South,185,0.0,0.0,88,0.00,,---,0.04,VWS V14.01,2013-02-02 13:47:00,
2013-02-02 05:53:00,39.9,36.7,30.09,South,185,0.0,0.0,88,0.00,,---,0.04,VWS V14.01,2013-02-02 13:53:00,
2013-02-02 05:59:00,39.7,36.5,30.09,South,184,2.2,2.2,88,0.00,,---,0.04,VWS V14.01,2013-02-02 13:59:00,
2013-02-02 06:06:00,39.7,36.2,30.06,South,184,0.0,0.0,87,0.00,,---,0.04,VWS V14.01,2013-02-02 14:06:00,
2013-02-02 06:11:00,39.9,36.7,30.06,South,190,0.0,0.0,88,0.00,,---,0.04,VWS V14.01,2013-02-02 14:11:00,
2013-02-02 06:17:00,39.9,36.7,30.06,South,190,0.0,0.0,88,0.00,,---,0.04,VWS V14.01,2013-02-02 14:17:00,
2013-02-02 06:24:00,39.9,36.7,30.06,South,190,0.0,0.0,88,0.00,,---,0.04,VWS V14.01,2013-02-02 14:24:00,
2013-02-02 06:30:00,39.7,36.5,30.06,South,190,0.0,0.0,88,0.00,,---,0.04,VWS V14.01,2013-02-02 14:30:00,
2013-02-02 06:35:00,39.7,36.5,30.06,South,190,0.0,0.0,88,0.00,,---,0.04,VWS V14.01,2013-02-02 14:35:00,
2013-02-02 06:42:00,39.6,36.0,30.06,South,190,0.0,0.0,87,0.00,,---,0.04,VWS V14.01,2013-02-02 14:42:00,
2013-02-02 06:47:00,39.6,36.0,30.06,South,190,0.0,0.0,87,0.00,,---,0.04,VWS V14.01,2013-02-02 14:47:00,
2013-02-02 06:53:00,39.4,35.8,30.06,South,190,0.0,0.0,87,0.00,,---,0.04,VWS V14.01,2013-02-02 14:53:00,
2013-02-02 06:59:00,39.4,35.8,30.06,South,190,0.0,0.0,87,0.00,,---,0.04,VWS V14.01,2013-02-02 14:59:00,
2013-02-02 07:05:00,39.2,35.7,30.06,South,190,0.0,0.0,87,0.00,,---,0.04,VWS V14.01,2013-02-02 15:05:00,
2013-02-02 07:11:00,39.2,35.7,30.06,West,274,0.0,4.0,87,0.00,,---,0.04,VWS V14.01,2013-02-02 15:11:00,
2013-02-02 07:18:00,39.2,35.4,30.06,West,274,0.0,0.0,86,0.00,,---,0.04,VWS V14.01,2013-02-02 15:18:00,
2013-02-02 07:24:00,39.2,35.4,30.06,SSW,206,0.0,0.0,86,0.00,,---,0.04,VWS V14.01,2013-02-02 15:24:00,
2013-02-02 07:29:00,39.2,35.7,30.06,SSW,208,0.0,0.0,87,0.00,,---,0.04,VWS V14.01,2013-02-02 15:29:00,
2013-02-02 07:35:00,39.0,35.5,30.06,SW,215,0.0,0.0,87,0.00,,---,0.04,VWS V14.01,2013-02-02 15:35:00,
2013-02-02 07:42:00,39.0,35.5,30.06,SW,215,0.0,0.0,87,0.00,,---,0.04,VWS V14.01,2013-02-02 15:42:00,
2013-02-02 07:47:00,39.0,35.5,30.06,SW,215,0.0,0.0,87,0.00,,---,0.04,VWS V14.01,2013-02-02 15:47:00,
2013-02-02 07:53:00,38.8,35.3,30.06,SW,215,0.0,0.0,87,0.00,,---,0.04,VWS V14.01,2013-02-02 15:53:00,
2013-02-02 07:59:00,38.8,35.0,30.06,SW,216,0.0,0.0,86,0.00,,---,0.04,VWS V14.01,2013-02-02 15:59:00,
2013-02-02 08:06:00,38.8,35.0,30.06,SW,215,0.0,0.0,86,0.00,,---,0.04,VWS V14.01,2013-02-02 16:06:00,
2013-02-02 08:11:00,38.8,35.0,30.06,SW,215,0.0,0.0,86,0.00,,---,0.04,VWS V14.01,2013-02-02 16:11:00,
2013-02-02 08:17:00,39.0,35.2,30.06,SW,215,0.0,0.0,86,0.00,,---,0.04,VWS V14.01,2013-02-02 16:17:00,
2013-02-02 08:23:00,39.2,35.4,30.06,SW,215,0.0,0.0,86,0.00,,---,0.04,VWS V14.01,2013-02-02 16:23:00,
2013-02-02 08:29:00,39.2,35.4,30.06,SW,215,0.0,0.0,86,0.00,,---,0.04,VWS V14.01,2013-02-02 16:29:00,
2013-02-02 08:35:00,39.2,35.1,30.06,SW,215,0.0,0.0,85,0.00,,---,0.04,VWS V14.01,2013-02-02 16:35:00,
2013-02-02 08:41:00,39.2,35.1,30.06,SW,215,0.0,0.0,85,0.00,,---,0.04,VWS V14.01,2013-02-02 16:41:00,
2013-02-02 08:48:00,39.0,34.9,30.06,SW,215,0.0,0.0,85,0.00,,---,0.04,VWS V14.01,2013-02-02 16:48:00,
2013-02-02 08:53:00,39.0,34.9,30.06,SW,215,0.0,0.0,85,0.00,,---,0.04,VWS V14.01,2013-02-02 16:53:00,
2013-02-02 08:59:00,39.0,34.6,30.06,SW,215,0.0,0.0,84,0.00,,---,0.04,VWS V14.01,2013-02-02 16:59:00,
2013-02-02 09:05:00,39.0,34.6,30.06,SW,215,0.0,0.0,84,0.00,,---,0.04,VWS V14.01,2013-02-02 17:05:00,
2013-02-02 09:11:00,39.2,34.8,30.06,SW,215,0.0,0.0,84,0.00,,---,0.04,VWS V14.01,2013-02-02 17:11:00,
2013-02-02 09:17:00,39.4,35.0,30.06,SW,215,0.0,0.0,84,0.00,,---,0.04,VWS V14.01,2013-02-02 17:17:00,
2013-02-02 09:23:00,39.2,33.6,30.06,SW,215,0.0,0.0,80,0.00,,---,0.04,VWS V14.01,2013-02-02 17:23:00,
2013-02-02 09:29:00,39.2,33.9,30.06,ESE,109,2.7,2.7,81,0.00,,---,0.04,VWS V14.01,2013-02-02 17:29:00,
2013-02-02 09:35:00,39.4,34.3,30.06,ESE,108,0.0,0.0,82,0.00,,---,0.04,VWS V14.01,2013-02-02 17:35:00,
2013-02-02 09:41:00,39.4,34.0,30.06,ESE,108,0.0,0.0,81,0.00,,---,0.04,VWS V14.01,2013-02-02 17:41:00,
2013-02-02 09:47:00,39.6,34.2,30.06,ESE,109,0.0,0.0,81,0.00,,---,0.04,VWS V14.01,2013-02-02 17:47:00,
2013-02-02 09:53:00,39.4,33.7,30.06,ESE,109,0.0,0.0,80,0.00,,---,0.04,VWS V14.01,2013-02-02 17:53:00,
2013-02-02 09:59:00,39.6,33.6,30.06,ESE,109,0.0,0.0,79,0.00,,---,0.04,VWS V14.01,2013-02-02 17:59:00,
2013-02-02 10:05:00,39.6,33.6,30.06,ESE,108,0.0,0.0,79,0.00,,---,0.04,VWS V14.01,2013-02-02 18:05:00,
2013-02-02 10:11:00,39.7,33.5,30.06,ESE,108,0.0,0.0,78,0.00,,---,0.04,VWS V14.01,2013-02-02 18:11:00,
2013-02-02 10:17:00,39.7,33.5,30.06,ESE,109,0.0,0.0,78,0.00,,---,0.04,VWS V14.01,2013-02-02 18:17:00,
2013-02-02 10:23:00,39.9,33.6,30.06,NNW,344,0.0,2.2,78,0.00,,---,0.04,VWS V14.01,2013-02-02 18:23:00,
2013-02-02 10:30:00,39.9,33.6,30.06,NNW,344,2.2,2.2,78,0.00,,---,0.04,VWS V14.01,2013-02-02 18:30:00,
2013-02-02 10:35:00,39.7,32.8,30.06,NNW,344,0.0,0.0,76,0.00,,---,0.04,VWS V14.01,2013-02-02 18:35:00,
2013-02-02 10:41:00,39.9,32.7,30.06,NNW,344,0.0,0.0,75,0.00,,---,0.04,VWS V14.01,2013-02-02 18:41:00,
2013-02-02 10:47:00,39.7,31.5,30.06,North,357,0.0,2.7,72,0.00,,---,0.04,VWS V14.01,2013-02-02 18:47:00,
2013-02-02 10:54:00,40.1,32.2,30.06,North,357,0.0,0.0,73,0.00,,---,0.04,VWS V14.01,2013-02-02 18:54:00,
2013-02-02 10:59:00,40.3,32.3,30.06,North,357,0.0,0.0,73,0.00,,---,0.04,VWS V14.01,2013-02-02 18:59:00,
2013-02-02 11:05:00,40.3,31.6,30.06,North,357,0.0,0.0,71,0.00,,---,0.04,VWS V14.01,2013-02-02 19:05:00,
2013-02-02 11:11:00,40.6,32.3,30.06,North,357,0.0,0.0,72,0.00,,---,0.04,VWS V14.01,2013-02-02 19:11:00,
2013-02-02 11:17:00,41.0,32.3,30.06,North,357,0.0,0.0,71,0.00,,---,0.04,VWS V14.01,2013-02-02 19:17:00,
2013-02-02 11:23:00,41.2,32.5,30.06,North,357,0.0,0.0,71,0.00,,---,0.04,VWS V14.01,2013-02-02 19:23:00,
2013-02-02 11:29:00,41.4,32.3,30.06,North,357,0.0,0.0,70,0.00,,---,0.04,VWS V14.01,2013-02-02 19:29:00,
2013-02-02 11:35:00,41.7,32.7,30.06,North,357,0.0,0.0,70,0.00,,---,0.04,VWS V14.01,2013-02-02 19:35:00,
2013-02-02 11:41:00,42.1,32.7,30.06,North,357,0.0,0.0,69,0.00,,---,0.04,VWS V14.01,2013-02-02 19:41:00,
2013-02-02 11:47:00,42.4,33.0,30.06,North,357,0.0,0.0,69,0.00,,---,0.04,VWS V14.01,2013-02-02 19:47:00,
2013-02-02 11:53:00,42.4,31.1,30.06,North,357,0.0,0.0,64,0.00,,---,0.04,VWS V14.01,2013-02-02 19:53:00,
2013-02-02 11:59:00,42.1,30.4,30.06,North,357,0.0,0.0,63,0.00,,---,0.04,VWS V14.01,2013-02-02 19:59:00,
2013-02-02 12:05:00,42.3,31.4,30.06,NNW,333,0.0,0.0,65,0.00,,---,0.04,VWS V14.01,2013-02-02 20:05:00,
2013-02-02 12:11:00,42.4,31.5,30.06,SSW,212,0.0,0.0,65,0.00,,---,0.04,VWS V14.01,2013-02-02 20:11:00,
2013-02-02 12:17:00,42.4,31.1,30.06,SSW,212,0.0,0.0,64,0.00,,---,0.04,VWS V14.01,2013-02-02 20:17:00,
2013-02-02 12:23:00,42.3,31.4,30.06,SSW,212,0.0,0.0,65,0.00,,---,0.04,VWS V14.01,2013-02-02 20:23:00,
2013-02-02 12:29:00,42.4,31.1,30.06,SSW,212,0.0,0.0,64,0.00,,---,0.04,VWS V14.01,2013-02-02 20:29:00,
2013-02-02 12:36:00,42.4,31.9,30.06,SSW,212,0.0,0.0,66,0.00,,---,0.04,VWS V14.01,2013-02-02 20:36:00,
2013-02-02 12:41:00,42.3,31.4,30.06,SSW,212,0.0,0.0,65,0.00,,---,0.04,VWS V14.01,2013-02-02 20:41:00,
2013-02-02 12:47:00,42.3,31.4,30.06,SSW,212,0.0,0.0,65,0.00,,---,0.04,VWS V14.01,2013-02-02 20:47:00,
2013-02-02 12:53:00,42.3,31.4,30.03,SSW,212,0.0,0.0,65,0.00,,---,0.04,VWS V14.01,2013-02-02 20:53:00,
2013-02-02 12:59:00,42.4,31.1,30.03,SSW,212,0.0,0.0,64,0.00,,---,0.04,VWS V14.01,2013-02-02 20:59:00,
2013-02-02 13:05:00,42.4,31.5,30.03,SSW,212,0.0,0.0,65,0.00,,---,0.04,VWS V14.01,2013-02-02 21:05:00,
2013-02-02 13:11:00,42.4,31.5,30.03,SSW,212,0.0,0.0,65,0.00,,---,0.04,VWS V14.01,2013-02-02 21:11:00,
2013-02-02 13:18:00,42.3,31.4,30.03,SW,228,0.0,0.0,65,0.00,,---,0.04,VWS V14.01,2013-02-02 21:18:00,
2013-02-02 13:23:00,42.3,31.4,30.03,SW,228,0.0,0.0,65,0.00,,---,0.04,VWS V14.01,2013-02-02 21:23:00,
2013-02-02 13:29:00,42.3,30.6,30.03,SW,228,0.0,0.0,63,0.00,,---,0.04,VWS V14.01,2013-02-02 21:29:00,
2013-02-02 13:35:00,42.4,31.5,30.03,SW,228,0.0,0.0,65,0.00,,---,0.04,VWS V14.01,2013-02-02 21:35:00,
2013-02-02 13:42:00,42.6,31.3,30.03,SW,228,0.0,0.0,64,0.00,,---,0.04,VWS V14.01,2013-02-02 21:42:00,
2013-02-02 13:47:00,43.0,31.6,30.03,East,93,0.0,0.0,64,0.00,,---,0.04,VWS V14.01,2013-02-02 21:47:00,
2013-02-02 13:53:00,42.8,30.3,30.06,East,93,0.0,0.0,61,0.00,,---,0.04,VWS V14.01,2013-02-02 21:53:00,
2013-02-02 13:59:00,43.0,31.3,30.06,East,94,0.0,0.0,63,0.00,,---,0.04,VWS V14.01,2013-02-02 21:59:00,
2013-02-02 14:05:00,42.8,31.5,30.03,East,93,0.0,0.0,64,0.00,,---,0.04,VWS V14.01,2013-02-02 22:05:00,
2013-02-02 14:11:00,43.0,31.3,30.03,East,94,0.0,0.0,63,0.00,,---,0.04,VWS V14.01,2013-02-02 22:11:00,
2013-02-02 14:17:00,43.2,31.8,30.03,East,94,0.0,0.0,64,0.00,,---,0.04,VWS V14.01,2013-02-02 22:17:00,
2013-02-02 14:23:00,43.2,31.8,30.03,East,94,0.0,0.0,64,0.00,,---,0.04,VWS V14.01,2013-02-02 22:23:00,
2013-02-02 14:29:00,43.2,31.4,30.03,East,93,0.0,0.0,63,0.00,,---,0.04,VWS V14.01,2013-02-02 22:29:00,
2013-02-02 14:35:00,43.2,31.4,30.03,East,93,0.0,0.0,63,0.00,,---,0.04,VWS V14.01,2013-02-02 22:35:00,
2013-02-02 14:41:00,42.8,30.7,30.03,East,94,0.0,0.0,62,0.00,,---,0.04,VWS V14.01,2013-02-02 22:41:00,
2013-02-02 14:47:00,42.8,30.7,30.03,East,94,0.0,0.0,62,0.00,,---,0.04,VWS V14.01,2013-02-02 22:47:00,
2013-02-02 14:53:00,42.8,31.1,30.03,East,94,0.0,0.0,63,0.00,,---,0.04,VWS V14.01,2013-02-02 22:53:00,
2013-02-02 14:59:00,43.0,31.3,30.03,East,94,0.0,0.0,63,0.00,,---,0.04,VWS V14.01,2013-02-02 22:59:00,
2013-02-02 15:05:00,43.0,31.6,30.03,East,94,0.0,0.0,64,0.00,,---,0.04,VWS V14.01,2013-02-02 23:05:00,
2013-02-02 15:11:00,42.6,30.5,30.03,East,94,0.0,0.0,62,0.00,,---,0.04,VWS V14.01,2013-02-02 23:11:00,
2013-02-02 15:17:00,42.6,30.9,30.03,East,93,0.0,0.0,63,0.00,,---,0.04,VWS V14.01,2013-02-02 23:17:00,
2013-02-02 15:23:00,42.4,31.5,30.03,East,93,0.0,0.0,65,0.00,,---,0.04,VWS V14.01,2013-02-02 23:23:00,
2013-02-02 15:29:00,42.4,31.1,30.03,East,93,0.0,0.0,64,0.00,,---,0.04,VWS V14.01,2013-02-02 23:29:00,
2013-02-02 15:35:00,42.3,31.0,30.03,East,93,0.0,0.0,64,0.00,,---,0.04,VWS V14.01,2013-02-02 23:35:00,
2013-02-02 15:41:00,42.3,30.6,30.03,East,93,0.0,0.0,63,0.00,,---,0.04,VWS V14.01,2013-02-02 23:41:00,
2013-02-02 15:47:00,42.1,30.8,30.03,East,93,0.0,0.0,64,0.00,,---,0.04,VWS V14.01,2013-02-02 23:47:00,
2013-02-02 15:53:00,42.1,31.2,30.03,East,93,0.0,0.0,65,0.00,,---,0.04,VWS V14.01,2013-02-02 23:53:00,
2013-02-02 16:00:00,41.9,30.6,30.03,East,93,0.0,0.0,64,0.00,,---,0.04,VWS V14.01,2013-02-03 00:00:00,
2013-02-02 16:05:00,41.9,31.0,30.03,East,93,0.0,0.0,65,0.00,,---,0.04,VWS V14.01,2013-02-03 00:05:00,
2013-02-02 16:11:00,41.9,31.0,30.03,East,93,0.0,0.0,65,0.00,,---,0.04,VWS V14.01,2013-02-03 00:11:00,
2013-02-02 16:17:00,41.7,31.2,30.03,East,93,0.0,0.0,66,0.00,,---,0.04,VWS V14.01,2013-02-03 00:17:00,
2013-02-02 16:23:00,41.5,31.0,30.03,East,93,0.0,0.0,66,0.00,,---,0.04,VWS V14.01,2013-02-03 00:23:00,
2013-02-02 16:29:00,41.5,31.0,30.03,East,93,0.0,0.0,66,0.00,,---,0.04,VWS V14.01,2013-02-03 00:29:00,
2013-02-02 16:35:00,41.5,31.4,30.00,East,93,0.0,0.0,67,0.00,,---,0.04,VWS V14.01,2013-02-03 00:35:00,
2013-02-02 16:41:00,41.4,31.2,30.00,East,93,0.0,0.0,67,0.00,,---,0.04,VWS V14.01,2013-02-03 00:41:00,
2013-02-02 16:48:00,41.2,31.4,30.00,East,93,0.0,0.0,68,0.00,,---,0.04,VWS V14.01,2013-02-03 00:48:00,
2013-02-02 16:53:00,41.0,31.6,30.00,East,93,0.0,0.0,69,0.00,,---,0.04,VWS V14.01,2013-02-03 00:53:00,
2013-02-02 16:59:00,40.6,31.6,30.00,East,93,0.0,0.0,70,0.00,,---,0.04,VWS V14.01,2013-02-03 00:59:00,
2013-02-02 17:05:00,40.8,32.2,30.00,East,93,0.0,0.0,71,0.00,,---,0.04,VWS V14.01,2013-02-03 01:05:00,
2013-02-02 17:12:00,40.8,32.2,30.00,East,93,0.0,0.0,71,0.00,,---,0.04,VWS V14.01,2013-02-03 01:12:00,
2013-02-02 17:17:00,40.8,32.2,30.00,East,93,0.0,0.0,71,0.00,,---,0.04,VWS V14.01,2013-02-03 01:17:00,
2013-02-02 17:23:00,40.8,32.5,30.00,East,93,0.0,0.0,72,0.00,,---,0.04,VWS V14.01,2013-02-03 01:23:00,
2013-02-02 17:30:00,41.0,32.7,30.00,East,93,0.0,0.0,72,0.00,,---,0.04,VWS V14.01,2013-02-03 01:30:00,
2013-02-02 17:35:00,40.8,32.5,30.00,East,93,0.0,0.0,72,0.00,,---,0.04,VWS V14.01,2013-02-03 01:35:00,
2013-02-02 17:41:00,40.8,32.8,30.00,East,93,0.0,0.0,73,0.00,,---,0.04,VWS V14.01,2013-02-03 01:41:00,
2013-02-02 17:47:00,40.6,32.7,30.00,East,93,0.0,0.0,73,0.00,,---,0.04,VWS V14.01,2013-02-03 01:47:00,
2013-02-02 17:54:00,40.5,32.5,30.00,East,93,0.0,0.0,73,0.00,,---,0.04,VWS V14.01,2013-02-03 01:54:00,
2013-02-02 17:59:00,40.3,32.0,30.00,East,91,0.0,0.0,72,0.00,,---,0.04,VWS V14.01,2013-02-03 01:59:00,
2013-02-02 18:05:00,40.1,32.2,30.00,East,91,0.0,0.0,73,0.00,,---,0.04,VWS V14.01,2013-02-03 02:05:00,
2013-02-02 18:11:00,39.9,32.0,30.00,East,91,0.0,0.0,73,0.00,,---,0.04,VWS V14.01,2013-02-03 02:11:00,
2013-02-02 18:18:00,39.9,32.3,30.00,East,91,0.0,0.0,74,0.00,,---,0.04,VWS V14.01,2013-02-03 02:18:00,
2013-02-02 18:23:00,39.9,32.3,30.00,East,91,0.0,0.0,74,0.00,,---,0.04,VWS V14.01,2013-02-03 02:23:00,
2013-02-02 18:29:00,39.7,32.1,30.00,East,91,0.0,0.0,74,0.00,,---,0.04,VWS V14.01,2013-02-03 02:29:00,
2013-02-02 18:35:00,39.7,32.1,30.00,East,91,0.0,0.0,74,0.00,,---,0.04,VWS V14.01,2013-02-03 02:35:00,
2013-02-02 18:41:00,39.6,32.3,30.00,East,91,0.0,0.0,75,0.00,,---,0.04,VWS V14.01,2013-02-03 02:41:00,
2013-02-02 18:47:00,39.7,32.8,30.00,SSW,197,0.0,2.7,76,0.00,,---,0.04,VWS V14.01,2013-02-03 02:47:00,
2013-02-02 18:53:00,39.6,33.0,30.00,WSW,243,0.0,0.0,77,0.00,,---,0.04,VWS V14.01,2013-02-03 02:53:00,
2013-02-02 18:59:00,39.7,33.8,30.00,WSW,244,0.0,0.0,79,0.00,,---,0.04,VWS V14.01,2013-02-03 02:59:00,
2013-02-02 19:05:00,39.7,34.4,30.00,WSW,244,0.0,0.0,81,0.00,,---,0.04,VWS V14.01,2013-02-03 03:05:00,
2013-02-02 19:11:00,39.9,34.9,30.00,WSW,244,0.0,0.0,82,0.00,,---,0.04,VWS V14.01,2013-02-03 03:11:00,
2013-02-02 19:18:00,39.7,34.7,30.00,WSW,256,0.0,0.0,82,0.00,,---,0.04,VWS V14.01,2013-02-03 03:18:00,
2013-02-02 19:23:00,39.7,34.7,30.00,WSW,256,0.0,0.0,82,0.00,,---,0.04,VWS V14.01,2013-02-03 03:23:00,
2013-02-02 19:29:00,39.9,35.2,30.00,WSW,256,0.0,0.0,83,0.00,,---,0.04,VWS V14.01,2013-02-03 03:29:00,
2013-02-02 19:36:00,39.9,35.2,30.00,WSW,255,0.0,0.0,83,0.00,,---,0.04,VWS V14.01,2013-02-03 03:36:00,
2013-02-02 19:41:00,39.7,35.0,30.00,WSW,256,0.0,0.0,83,0.00,,---,0.04,VWS V14.01,2013-02-03 03:41:00,
2013-02-02 19:47:00,39.7,35.0,30.00,WSW,256,0.0,0.0,83,0.00,,---,0.04,VWS V14.01,2013-02-03 03:47:00,
2013-02-02 19:53:00,39.7,35.0,30.00,WSW,256,0.0,0.0,83,0.00,,---,0.04,VWS V14.01,2013-02-03 03:53:00,
2013-02-02 20:00:00,39.9,35.2,30.00,SW,233,0.0,0.0,83,0.00,,---,0.04,VWS V14.01,2013-02-03 04:00:00,
2013-02-02 20:05:00,39.9,35.2,30.00,SW,226,0.0,0.0,83,0.00,,---,0.04,VWS V14.01,2013-02-03 04:05:00,
2013-02-02 20:11:00,40.1,35.4,30.00,SW,226,0.0,0.0,83,0.00,,---,0.04,VWS V14.01,2013-02-03 04:11:00,
2013-02-02 20:17:00,40.1,35.4,30.00,SW,226,0.0,0.0,83,0.00,,---,0.04,VWS V14.01,2013-02-03 04:17:00,
2013-02-02 20:23:00,39.7,34.7,30.00,SW,226,0.0,0.0,82,0.00,,---,0.04,VWS V14.01,2013-02-03 04:23:00,
2013-02-02 20:29:00,39.4,34.0,30.00,SW,226,0.0,0.0,81,0.00,,---,0.04,VWS V14.01,2013-02-03 04:29:00,
2013-02-02 20:35:00,38.8,33.2,30.00,SW,226,0.0,0.0,80,0.00,,---,0.04,VWS V14.01,2013-02-03 04:35:00,
2013-02-02 20:41:00,38.7,33.3,30.00,SW,226,0.0,0.0,81,0.00,,---,0.04,VWS V14.01,2013-02-03 04:41:00,
2013-02-02 20:47:00,38.5,33.2,30.00,SW,226,0.0,0.0,81,0.00,,---,0.04,VWS V14.01,2013-02-03 04:47:00,
2013-02-02 20:53:00,38.7,33.3,30.00,SW,226,0.0,0.0,81,0.00,,---,0.04,VWS V14.01,2013-02-03 04:53:00,
2013-02-02 20:59:00,38.8,33.5,30.00,SW,226,0.0,0.0,81,0.00,,---,0.04,VWS V14.01,2013-02-03 04:59:00,
2013-02-02 21:03:00,38.8,33.5,30.00,SW,226,0.0,0.0,81,0.00,,---,0.04,VWS V14.01,2013-02-03 05:03:00,
2013-02-02 21:06:00,38.8,33.5,30.00,SW,226,0.0,0.0,81,0.00,,---,0.04,VWS V14.01,2013-02-03 05:06:00,
2013-02-02 21:11:00,38.8,33.5,30.00,SW,226,0.0,0.0,81,0.00,,---,0.04,VWS V14.01,2013-02-03 05:11:00,
2013-02-02 21:13:00,38.8,33.5,30.00,SW,226,0.0,0.0,81,0.00,,---,0.04,VWS V14.01,2013-02-03 05:13:00,
2013-02-02 21:17:00,38.7,33.0,30.00,SW,226,0.0,0.0,80,0.00,,---,0.04,VWS V14.01,2013-02-03 05:17:00,
2013-02-02 21:24:00,38.7,33.0,30.00,SW,226,0.0,0.0,80,0.00,,---,0.04,VWS V14.01,2013-02-03 05:24:00,
2013-02-02 21:29:00,38.5,32.9,30.00,SW,226,0.0,0.0,80,0.00,,---,0.04,VWS V14.01,2013-02-03 05:29:00,
2013-02-02 21:35:00,38.3,32.4,30.00,SW,226,0.0,0.0,79,0.00,,---,0.04,VWS V14.01,2013-02-03 05:35:00,
2013-02-02 21:41:00,38.3,32.7,30.00,SW,226,0.0,0.0,80,0.00,,---,0.04,VWS V14.01,2013-02-03 05:41:00,
2013-02-02 21:47:00,38.1,32.5,30.00,SW,226,0.0,0.0,80,0.00,,---,0.04,VWS V14.01,2013-02-03 05:47:00,
2013-02-02 21:53:00,38.1,32.5,30.00,SW,226,0.0,0.0,80,0.00,,---,0.04,VWS V14.01,2013-02-03 05:53:00,
2013-02-02 21:59:00,38.1,32.5,30.00,SW,227,0.0,0.0,80,0.00,,---,0.04,VWS V14.01,2013-02-03 05:59:00,
2013-02-02 22:05:00,37.9,32.3,30.00,SW,227,0.0,0.0,80,0.00,,---,0.04,VWS V14.01,2013-02-03 06:05:00,
2013-02-02 22:11:00,37.9,32.3,30.00,SW,227,0.0,0.0,80,0.00,,---,0.04,VWS V14.01,2013-02-03 06:11:00,
2013-02-02 22:17:00,37.9,32.3,30.00,SW,227,0.0,0.0,80,0.00,,---,0.04,VWS V14.01,2013-02-03 06:17:00,
2013-02-02 22:23:00,37.9,32.3,30.03,SW,227,0.0,0.0,80,0.00,,---,0.04,VWS V14.01,2013-02-03 06:23:00,
2013-02-02 22:29:00,37.6,31.7,30.03,SW,225,0.0,0.0,79,0.00,,---,0.04,VWS V14.01,2013-02-03 06:29:00,
2013-02-02 22:35:00,37.0,31.1,30.00,SW,225,0.0,0.0,79,0.00,,---,0.04,VWS V14.01,2013-02-03 06:35:00,
2013-02-02 22:41:00,36.9,31.0,30.00,SW,225,0.0,0.0,79,0.00,,---,0.04,VWS V14.01,2013-02-03 06:41:00,
2013-02-02 22:47:00,36.7,30.8,30.00,SW,225,0.0,0.0,79,0.00,,---,0.04,VWS V14.01,2013-02-03 06:47:00,
2013-02-02 22:53:00,36.7,30.5,30.03,SW,225,0.0,0.0,78,0.00,,---,0.04,VWS V14.01,2013-02-03 06:53:00,
2013-02-02 22:59:00,36.5,30.3,30.03,SW,225,0.0,0.0,78,0.00,,---,0.04,VWS V14.01,2013-02-03 06:59:00,
2013-02-02 23:05:00,36.7,30.5,30.03,SW,226,0.0,0.0,78,0.00,,---,0.04,VWS V14.01,2013-02-03 07:05:00,
2013-02-02 23:11:00,36.5,30.3,30.03,SW,225,0.0,0.0,78,0.00,,---,0.04,VWS V14.01,2013-02-03 07:11:00,
2013-02-02 23:17:00,36.3,30.1,30.03,SW,225,0.0,0.0,78,0.00,,---,0.04,VWS V14.01,2013-02-03 07:17:00,
2013-02-02 23:23:00,36.3,30.1,30.03,SW,225,0.0,0.0,78,0.00,,---,0.04,VWS V14.01,2013-02-03 07:23:00,
2013-02-02 23:29:00,36.1,30.0,30.03,SW,225,0.0,0.0,78,0.00,,---,0.04,VWS V14.01,2013-02-03 07:29:00,
2013-02-02 23:35:00,35.8,29.6,30.03,SW,225,0.0,0.0,78,0.00,,---,0.04,VWS V14.01,2013-02-03 07:35:00,
2013-02-02 23:41:00,35.6,29.1,30.03,SW,225,0.0,0.0,77,0.00,,---,0.04,VWS V14.01,2013-02-03 07:41:00,
2013-02-02 23:47:00,35.4,29.2,30.03,SW,225,0.0,0.0,78,0.00,,---,0.04,VWS V14.01,2013-02-03 07:47:00,
2013-02-02 23:53:00,35.2,28.8,30.03,SW,225,0.0,0.0,77,0.00,,---,0.04,VWS V14.01,2013-02-03 07:53:00,
2013-02-02 23:59:00,35.1,28.6,30.03,SW,225,0.0,0.0,77,0.00,,---,0.00,VWS V14.01,2013-02-03 07:59:00,